createdAt,value
2023-02-19T00:02:41.511Z,100487.81
2023-02-19T00:05:42.944Z,100492.00
2023-02-19T00:08:44.600Z,100490.59
2023-02-19T00:11:47.545Z,100493.63
2023-02-19T00:14:48.968Z,100493.38
2023-02-19T00:17:50.386Z,100502.44
2023-02-19T00:20:51.824Z,100492.22
2023-02-19T00:23:55.957Z,100494.31
2023-02-19T00:26:57.510Z,100493.88
2023-02-19T00:29:59.051Z,100487.25
2023-02-19T00:33:00.642Z,100493.75
2023-02-19T00:36:04.023Z,100492.50
2023-02-19T00:39:07.896Z,100494.84
2023-02-19T00:42:09.391Z,100490.69
2023-02-19T00:45:10.920Z,100488.63
2023-02-19T00:48:12.464Z,100496.63
2023-02-19T00:51:14.860Z,100504.69
2023-02-19T00:54:16.909Z,100491.97
2023-02-19T00:57:18.498Z,100489.47
2023-02-19T01:00:20.124Z,100485.88
2023-02-19T01:03:24.619Z,100479.53
2023-02-19T01:06:26.254Z,100473.44
2023-02-19T01:09:27.762Z,100475.66
2023-02-19T01:12:29.608Z,100484.22
2023-02-19T01:15:32.977Z,100485.75
2023-02-19T01:18:35.471Z,100488.94
2023-02-19T01:21:37.233Z,100480.06
2023-02-19T01:24:38.837Z,100480.38
2023-02-19T01:27:40.308Z,100477.28
2023-02-19T01:30:41.786Z,100479.78
2023-02-19T01:33:48.536Z,100474.84
2023-02-19T01:36:50.056Z,100488.78
2023-02-19T01:39:51.545Z,100486.56
2023-02-19T01:42:53.052Z,100491.63
2023-02-19T01:45:55.344Z,100493.03
2023-02-19T01:49:02.278Z,100492.72
2023-02-19T01:52:12.945Z,100493.88
2023-02-19T01:55:14.546Z,100484.06
2023-02-19T01:58:16.584Z,100483.38
2023-02-19T02:01:18.151Z,100482.69
2023-02-19T02:04:19.809Z,100487.78
2023-02-19T02:07:42.111Z,100485.84
2023-02-19T02:10:44.207Z,100494.44
2023-02-19T02:13:46.251Z,100512.91
2023-02-19T02:17:20.223Z,100495.53
2023-02-19T02:20:51.892Z,100487.53
2023-02-19T02:24:02.504Z,100485.75
2023-02-19T02:27:42.389Z,100488.34
2023-02-19T02:30:48.709Z,100470.47
2023-02-19T02:33:59.621Z,100467.47
2023-02-19T02:37:02.585Z,100476.88
2023-02-19T02:40:08.154Z,100465.72
2023-02-19T02:43:09.913Z,100446.41
2023-02-19T02:46:13.218Z,100446.13
2023-02-19T02:49:22.465Z,100434.16
2023-02-19T02:52:44.092Z,100442.59
2023-02-19T02:55:49.438Z,100443.81
2023-02-19T02:58:53.282Z,100431.91
2023-02-19T03:02:11.289Z,100442.25
2023-02-19T03:05:37.137Z,100448.88
2023-02-19T03:08:58.841Z,100454.25
2023-02-19T03:12:22.001Z,100456.88
2023-02-19T03:15:47.322Z,100457.88
2023-02-19T03:19:12.533Z,100451.06
2023-02-19T03:22:19.976Z,100451.09
2023-02-19T03:25:49.091Z,100450.66
2023-02-19T03:29:16.805Z,100455.38
2023-02-19T03:32:49.469Z,100456.16
2023-02-19T03:36:02.587Z,100441.91
2023-02-19T03:39:08.507Z,100451.88
2023-02-19T03:42:21.797Z,100457.28
2023-02-19T03:45:36.280Z,100464.19
2023-02-19T03:49:06.140Z,100461.41
2023-02-19T03:52:18.482Z,100450.94
2023-02-19T03:55:41.508Z,100459.22
2023-02-19T03:58:57.571Z,100464.88
2023-02-19T04:02:37.367Z,100459.19
2023-02-19T04:05:45.525Z,100464.44
2023-02-19T04:08:52.544Z,100464.56
2023-02-19T04:11:55.145Z,100467.19
2023-02-19T04:15:04.973Z,100476.28
2023-02-19T04:18:12.506Z,100474.97
2023-02-19T04:21:15.527Z,100479.94
2023-02-19T04:24:23.257Z,100481.44
2023-02-19T04:27:24.769Z,100495.00
2023-02-19T04:30:26.494Z,100497.03
2023-02-19T04:33:27.981Z,100507.00
2023-02-19T04:36:30.766Z,100507.66
2023-02-19T04:39:32.682Z,100508.56
2023-02-19T04:42:34.157Z,100508.84
2023-02-19T04:45:37.829Z,100511.69
2023-02-19T04:48:39.434Z,100520.91
2023-02-19T04:51:41.127Z,100538.53
2023-02-19T04:54:42.644Z,100545.81
2023-02-19T04:57:44.189Z,100545.28
2023-02-19T05:00:45.720Z,100546.31
2023-02-19T05:03:47.249Z,100547.63
2023-02-19T05:06:48.735Z,100561.06
2023-02-19T05:09:50.245Z,100568.16
2023-02-19T05:12:52.259Z,100576.97
2023-02-19T05:16:03.068Z,100572.22
2023-02-19T05:19:04.562Z,100569.44
2023-02-19T05:22:06.092Z,100580.13
2023-02-19T05:25:07.691Z,100580.81
2023-02-19T05:28:18.246Z,100577.28
2023-02-19T05:31:20.834Z,100582.50
2023-02-19T05:34:22.392Z,100585.56
2023-02-19T05:37:23.885Z,100587.28
2023-02-19T05:40:25.391Z,100594.44
2023-02-19T05:43:26.917Z,100592.00
2023-02-19T05:46:32.439Z,100595.41
2023-02-19T05:49:34.070Z,100603.38
2023-02-19T05:52:35.587Z,100604.09
2023-02-19T05:55:37.135Z,100608.50
2023-02-19T05:58:38.636Z,100605.69
2023-02-19T06:01:40.147Z,100604.38
2023-02-19T06:04:41.691Z,100605.91
2023-02-19T06:07:43.297Z,100604.81
2023-02-19T06:10:44.806Z,100620.03
2023-02-19T06:13:46.739Z,100617.44
2023-02-19T06:16:48.222Z,100618.84
2023-02-19T06:19:49.667Z,100625.28
2023-02-19T06:22:51.771Z,100624.19
2023-02-19T06:25:53.196Z,100633.00
2023-02-19T06:28:54.743Z,100632.28
2023-02-19T06:31:56.243Z,100628.00
2023-02-19T06:34:57.712Z,100625.97
2023-02-19T06:37:59.114Z,100630.59
2023-02-19T06:41:05.041Z,100624.03
2023-02-19T06:44:06.520Z,100632.47
2023-02-19T06:47:07.952Z,100630.38
2023-02-19T06:50:09.372Z,100632.91
2023-02-19T06:53:11.657Z,100646.94
2023-02-19T06:56:26.696Z,100643.00
2023-02-19T06:59:28.146Z,100653.44
2023-02-19T07:02:29.593Z,100643.75
2023-02-19T07:05:31.064Z,100651.25
2023-02-19T07:08:32.493Z,100655.78
2023-02-19T07:11:35.484Z,100652.03
2023-02-19T07:14:36.932Z,100667.72
2023-02-19T07:17:38.371Z,100677.56
2023-02-19T07:20:39.808Z,100684.16
2023-02-19T07:23:42.326Z,100695.34
2023-02-19T07:26:43.954Z,100698.13
2023-02-19T07:29:45.383Z,100699.38
2023-02-19T07:32:46.869Z,100696.31
2023-02-19T07:35:49.819Z,100694.25
2023-02-19T07:38:58.822Z,100692.03
2023-02-19T07:42:00.681Z,100695.00
2023-02-19T07:45:02.214Z,100692.03
2023-02-19T07:48:03.847Z,100695.19
2023-02-19T07:51:07.283Z,100691.91
2023-02-19T07:54:08.725Z,100703.13
2023-02-19T07:57:10.147Z,100716.72
2023-02-19T08:00:12.071Z,100720.03
2023-02-19T08:03:16.526Z,100711.84
2023-02-19T08:06:17.993Z,100712.94
2023-02-19T08:09:19.394Z,100722.66
2023-02-19T08:12:39.432Z,100715.50
2023-02-19T08:15:40.818Z,100713.50
2023-02-19T08:18:42.351Z,100711.47
2023-02-19T08:21:43.855Z,100727.88
2023-02-19T08:24:45.281Z,100733.72
2023-02-19T08:27:46.674Z,100734.75
2023-02-19T08:30:48.856Z,100734.53
2023-02-19T08:33:50.472Z,100751.41
2023-02-19T08:36:52.078Z,100743.56
2023-02-19T08:39:53.491Z,100735.97
2023-02-19T08:42:54.928Z,100733.09
2023-02-19T08:45:56.504Z,100739.50
2023-02-19T08:48:58.004Z,100754.41
2023-02-19T08:51:59.449Z,100752.72
2023-02-19T08:55:01.754Z,100751.03
2023-02-19T08:58:03.413Z,100753.56
2023-02-19T09:01:17.709Z,100756.47
2023-02-19T09:04:19.177Z,100767.56
2023-02-19T09:07:20.591Z,100765.69
2023-02-19T09:10:22.107Z,100764.97
2023-02-19T09:13:23.585Z,100764.59
2023-02-19T09:16:25.062Z,100766.13
2023-02-19T09:19:27.566Z,100774.94
2023-02-19T09:22:29.008Z,100760.16
2023-02-19T09:25:30.406Z,100776.81
2023-02-19T09:28:32.249Z,100777.06
2023-02-19T09:31:35.224Z,100763.88
2023-02-19T09:34:39.019Z,100776.44
2023-02-19T09:37:40.494Z,100773.75
2023-02-19T09:40:42.070Z,100768.16
2023-02-19T09:43:43.866Z,100763.88
2023-02-19T09:46:48.726Z,100765.38
2023-02-19T09:49:57.152Z,100771.97
2023-02-19T09:53:03.721Z,100780.47
2023-02-19T09:56:05.723Z,100788.09
2023-02-19T09:59:17.484Z,100788.78
2023-02-19T10:02:24.357Z,100797.19
2023-02-19T10:05:26.688Z,100799.31
2023-02-19T10:08:32.453Z,100800.34
2023-02-19T10:11:33.937Z,100797.53
2023-02-19T10:14:48.316Z,100805.66
2023-02-19T10:17:49.718Z,100820.53
2023-02-19T10:20:52.652Z,100815.09
2023-02-19T10:24:00.025Z,100817.97
2023-02-19T10:27:01.634Z,100817.84
2023-02-19T10:30:03.371Z,100828.16
2023-02-19T10:33:14.313Z,100833.97
2023-02-19T10:36:24.823Z,100832.38
2023-02-19T10:39:40.107Z,100829.94
2023-02-19T10:42:46.677Z,100834.16
2023-02-19T10:45:50.379Z,100836.19
2023-02-19T10:48:57.161Z,100836.13
2023-02-19T10:52:02.795Z,100831.09
2023-02-19T10:55:24.414Z,100835.31
2023-02-19T10:58:27.618Z,100833.69
2023-02-19T11:01:29.198Z,100825.56
2023-02-19T11:04:35.227Z,100835.53
2023-02-19T11:07:39.063Z,100837.66
2023-02-19T11:10:44.823Z,100832.69
2023-02-19T11:13:46.231Z,100834.91
2023-02-19T11:16:56.982Z,100828.06
2023-02-19T11:20:05.508Z,100837.66
2023-02-19T11:23:17.016Z,100831.97
2023-02-19T11:26:21.639Z,100829.56
2023-02-19T11:29:24.594Z,100825.44
2023-02-19T11:32:29.676Z,100823.44
2023-02-19T11:35:31.111Z,100821.53
2023-02-19T11:38:32.517Z,100829.19
2023-02-19T11:41:50.570Z,100827.78
2023-02-19T11:45:10.852Z,100830.78
2023-02-19T11:48:32.680Z,100838.63
2023-02-19T11:52:13.420Z,100831.88
2023-02-19T11:55:26.861Z,100831.88
2023-02-19T11:58:37.341Z,100829.97
2023-02-19T12:02:07.743Z,100833.78
2023-02-19T12:06:00.591Z,100835.34
2023-02-19T12:09:28.795Z,100842.66
2023-02-19T12:12:42.955Z,100835.84
2023-02-19T12:15:51.196Z,100842.13
2023-02-19T12:19:17.499Z,100833.19
2023-02-19T12:22:33.952Z,100833.19
2023-02-19T12:25:56.603Z,100818.41
2023-02-19T12:29:13.223Z,100813.94
2023-02-19T12:32:39.966Z,100813.22
2023-02-19T12:35:53.162Z,100805.28
2023-02-19T12:39:31.620Z,100804.41
2023-02-19T12:43:01.716Z,100814.31
2023-02-19T12:46:09.808Z,100795.31
2023-02-19T12:49:19.119Z,100795.06
2023-02-19T12:52:28.255Z,100805.78
2023-02-19T12:55:39.220Z,100801.47
2023-02-19T12:58:46.508Z,100788.94
2023-02-19T13:02:19.274Z,100779.31
2023-02-19T13:05:32.667Z,100780.34
2023-02-19T13:09:05.730Z,100783.13
2023-02-19T13:12:38.067Z,100774.78
2023-02-19T13:15:42.224Z,100786.00
2023-02-19T13:18:50.868Z,100790.72
2023-02-19T13:22:21.725Z,100788.97
2023-02-19T13:25:33.152Z,100789.97
2023-02-19T13:28:59.384Z,100784.44
2023-02-19T13:32:40.453Z,100777.44
2023-02-19T13:35:56.970Z,100784.72
2023-02-19T13:38:59.547Z,100786.47
2023-02-19T13:42:01.724Z,100787.84
2023-02-19T13:45:06.341Z,100790.78
2023-02-19T13:48:24.757Z,100796.63
2023-02-19T13:51:29.214Z,100782.03
2023-02-19T13:54:37.175Z,100786.31
2023-02-19T13:57:39.305Z,100799.38
2023-02-19T14:00:51.928Z,100797.13
2023-02-19T14:04:06.449Z,100802.16
2023-02-19T14:07:07.838Z,100794.63
2023-02-19T14:10:14.041Z,100793.53
2023-02-19T14:13:50.648Z,100785.13
2023-02-19T14:16:56.817Z,100786.84
2023-02-19T14:20:50.911Z,100789.72
2023-02-19T14:23:55.949Z,100786.00
2023-02-19T14:26:57.695Z,100781.97
2023-02-19T14:29:59.903Z,100787.19
2023-02-19T14:33:10.495Z,100785.84
2023-02-19T14:36:44.007Z,100793.00
2023-02-19T14:39:47.033Z,100789.72
2023-02-19T14:42:51.464Z,100786.69
2023-02-19T14:45:57.770Z,100794.53
2023-02-19T14:49:15.051Z,100794.06
2023-02-19T14:52:21.960Z,100794.94
2023-02-19T14:55:32.642Z,100788.75
2023-02-19T14:58:36.908Z,100782.19
2023-02-19T15:01:39.246Z,100784.47
2023-02-19T15:04:40.790Z,100785.66
2023-02-19T15:07:42.733Z,100780.03
2023-02-19T15:10:44.874Z,100786.13
2023-02-19T15:13:56.133Z,100794.63
2023-02-19T15:17:03.967Z,100790.78
2023-02-19T15:20:16.430Z,100791.00
2023-02-19T15:23:22.938Z,100789.47
2023-02-19T15:26:33.230Z,100805.72
2023-02-19T15:29:37.118Z,100808.06
2023-02-19T15:32:38.591Z,100805.19
2023-02-19T15:35:40.111Z,100816.28
2023-02-19T15:38:41.665Z,100805.75
2023-02-19T15:41:44.591Z,100815.34
2023-02-19T15:44:55.087Z,100826.84
2023-02-19T15:48:03.379Z,100835.94
2023-02-19T15:51:11.260Z,100854.66
2023-02-19T15:54:39.859Z,100845.97
2023-02-19T15:57:45.718Z,100839.53
2023-02-19T16:00:50.305Z,100848.72
2023-02-19T16:03:54.067Z,100853.84
2023-02-19T16:07:01.403Z,100853.44
2023-02-19T16:10:20.894Z,100843.88
2023-02-19T16:13:24.405Z,100849.44
2023-02-19T16:16:30.530Z,100856.47
2023-02-19T16:19:44.051Z,100857.34
2023-02-19T16:22:45.821Z,100859.72
2023-02-19T16:25:48.191Z,100859.72
2023-02-19T16:28:51.441Z,100871.84
2023-02-19T16:32:02.325Z,100873.03
2023-02-19T16:35:04.304Z,100883.19
2023-02-19T16:38:16.846Z,100879.88
2023-02-19T16:41:18.387Z,100873.22
2023-02-19T16:44:38.855Z,100873.03
2023-02-19T16:47:44.885Z,100880.94
2023-02-19T16:50:46.277Z,100863.03
2023-02-19T16:53:47.715Z,100857.69
2023-02-19T16:56:49.135Z,100857.78
2023-02-19T16:59:50.642Z,100851.88
2023-02-19T17:02:55.285Z,100859.91
2023-02-19T17:05:56.777Z,100872.53
2023-02-19T17:08:58.953Z,100866.63
2023-02-19T17:12:00.454Z,100876.13
2023-02-19T17:15:01.895Z,100872.09
2023-02-19T17:18:03.437Z,100875.91
2023-02-19T17:21:14.213Z,100879.53
2023-02-19T17:24:15.648Z,100880.13
2023-02-19T17:27:17.275Z,100877.03
2023-02-19T17:30:40.421Z,100888.59
2023-02-19T17:33:42.876Z,100877.94
2023-02-19T17:36:45.466Z,100876.19
2023-02-19T17:39:46.975Z,100884.91
2023-02-19T17:42:48.502Z,100893.34
2023-02-19T17:45:50.918Z,100898.56
2023-02-19T17:48:53.003Z,100901.47
2023-02-19T17:51:54.418Z,100900.88
2023-02-19T17:54:55.833Z,100899.88
2023-02-19T17:57:57.343Z,100900.69
2023-02-19T18:00:59.046Z,100901.06
2023-02-19T18:04:00.722Z,100907.03
2023-02-19T18:07:02.844Z,100903.47
2023-02-19T18:10:06.102Z,100886.94
2023-02-19T18:13:09.338Z,100885.78
2023-02-19T18:16:11.178Z,100898.38
2023-02-19T18:19:12.741Z,100901.84
2023-02-19T18:22:14.179Z,100904.13
2023-02-19T18:25:17.072Z,100910.28
2023-02-19T18:28:18.604Z,100929.00
2023-02-19T18:31:20.145Z,100925.78
2023-02-19T18:34:21.962Z,100937.44
2023-02-19T18:37:25.108Z,100936.84
2023-02-19T18:40:26.695Z,100937.41
2023-02-19T18:43:28.142Z,100941.34
2023-02-19T18:46:32.252Z,100957.19
2023-02-19T18:49:33.928Z,100952.41
2023-02-19T18:52:35.382Z,100948.63
2023-02-19T18:55:36.996Z,100951.94
2023-02-19T18:58:38.393Z,100957.44
2023-02-19T19:01:39.880Z,100954.56
2023-02-19T19:04:42.992Z,100959.53
2023-02-19T19:07:44.455Z,100961.00
2023-02-19T19:10:45.887Z,100963.50
2023-02-19T19:13:47.356Z,100971.34
2023-02-19T19:16:49.342Z,100974.81
2023-02-19T19:19:50.773Z,100978.50
2023-02-19T19:22:52.951Z,100987.38
2023-02-19T19:25:54.707Z,100988.59
2023-02-19T19:28:56.190Z,100987.75
2023-02-19T19:31:57.786Z,100998.44
2023-02-19T19:34:59.442Z,100998.09
2023-02-19T19:38:00.895Z,100999.78
2023-02-19T19:41:02.383Z,101010.72
2023-02-19T19:44:05.321Z,101016.41
2023-02-19T19:47:06.792Z,101009.25
2023-02-19T19:50:09.439Z,101013.03
2023-02-19T19:53:10.892Z,101018.78
2023-02-19T19:56:12.408Z,101024.81
2023-02-19T19:59:15.499Z,101015.19
2023-02-19T20:02:17.603Z,101014.88
2023-02-19T20:05:19.086Z,101019.91
2023-02-19T20:08:21.208Z,101021.66
2023-02-19T20:11:23.179Z,101015.19
2023-02-19T20:14:25.702Z,101024.94
2023-02-19T20:17:28.778Z,101021.84
2023-02-19T20:20:30.550Z,101025.84
2023-02-19T20:23:32.944Z,101028.16
2023-02-19T20:26:34.529Z,101019.19
2023-02-19T20:29:36.003Z,101020.41
2023-02-19T20:32:37.430Z,101018.72
2023-02-19T20:35:38.892Z,101017.69
2023-02-19T20:38:43.325Z,101014.66
2023-02-19T20:41:49.878Z,101014.00
2023-02-19T20:44:51.263Z,101015.44
2023-02-19T20:47:52.707Z,101011.50
2023-02-19T20:50:59.288Z,101006.34
2023-02-19T20:54:00.699Z,101009.13
2023-02-19T20:57:04.972Z,101001.47
2023-02-19T21:00:08.162Z,100990.38
2023-02-19T21:03:11.497Z,100997.53
2023-02-19T21:06:13.176Z,101000.44
2023-02-19T21:09:14.843Z,101008.78
2023-02-19T21:12:16.531Z,101004.63
2023-02-19T21:15:18.474Z,101020.88
2023-02-19T21:18:19.953Z,101026.47
2023-02-19T21:21:25.154Z,101037.53
2023-02-19T21:24:26.607Z,101038.81
2023-02-19T21:27:28.095Z,101034.84
2023-02-19T21:30:29.609Z,101033.78
2023-02-19T21:33:31.081Z,101028.25
2023-02-19T21:36:32.888Z,101027.44
2023-02-19T21:39:34.645Z,101025.63
2023-02-19T21:42:36.074Z,101029.34
2023-02-19T21:45:37.495Z,101021.28
2023-02-19T21:48:38.940Z,101026.75
2023-02-19T21:51:43.597Z,101022.25
2023-02-19T21:54:45.032Z,101024.03
2023-02-19T21:57:46.493Z,101020.09
2023-02-19T22:00:47.916Z,101025.56
2023-02-19T22:03:49.391Z,101017.34
2023-02-19T22:06:54.805Z,101008.16
2023-02-19T22:09:56.765Z,100996.78
2023-02-19T22:12:58.287Z,100999.56
2023-02-19T22:15:59.783Z,101006.63
2023-02-19T22:19:01.245Z,101003.19
2023-02-19T22:22:03.193Z,100996.53
2023-02-19T22:25:04.774Z,101013.19
2023-02-19T22:28:07.793Z,101017.91
2023-02-19T22:31:09.258Z,101015.06
2023-02-19T22:34:11.748Z,101021.47
2023-02-19T22:37:13.184Z,101026.47
2023-02-19T22:40:14.584Z,101033.38
2023-02-19T22:43:19.174Z,101031.78
2023-02-19T22:46:23.049Z,101038.59
2023-02-19T22:49:24.680Z,101045.00
2023-02-19T22:52:27.959Z,101048.53
2023-02-19T22:55:29.356Z,101052.94
2023-02-19T22:58:30.777Z,101049.38
2023-02-19T23:01:32.494Z,101036.59
2023-02-19T23:04:33.947Z,101049.94
2023-02-19T23:07:35.470Z,101047.00
2023-02-19T23:10:36.970Z,101056.50
2023-02-19T23:13:41.077Z,101058.53
2023-02-19T23:16:42.562Z,101049.09
2023-02-19T23:19:44.060Z,101051.13
2023-02-19T23:22:45.668Z,101052.78
2023-02-19T23:25:47.139Z,101059.16
2023-02-19T23:28:48.941Z,101067.25
2023-02-19T23:31:50.848Z,101060.22
2023-02-19T23:34:52.356Z,101051.31
2023-02-19T23:37:55.005Z,101063.22
2023-02-19T23:40:56.482Z,101061.13
2023-02-19T23:43:57.940Z,101069.69
2023-02-19T23:46:59.540Z,101068.59
2023-02-19T23:50:00.960Z,101069.41
2023-02-19T23:53:02.632Z,101073.91
2023-02-19T23:56:04.392Z,101074.22
2023-02-19T23:59:06.724Z,101070.94
